sensor_id;sensor_type;location;lat;lon;timestamp;temperature;humidity
9446;DHT22;4761;49.490;10.908;2024-03-23T00:55:05;17.40;50.60
9446;DHT22;4761;49.490;10.908;2024-03-23T00:57:31;17.40;50.60
9446;DHT22;4761;49.490;10.908;2024-03-23T00:59:56;17.40;50.60
9446;DHT22;4761;49.490;10.908;2024-03-23T01:02:21;17.50;50.70
9446;DHT22;4761;49.490;10.908;2024-03-23T01:04:47;17.40;51.20
9446;DHT22;4761;49.490;10.908;2024-03-23T01:07:13;17.40;50.60
9446;DHT22;4761;49.490;10.908;2024-03-23T01:09:38;17.40;50.70
9446;DHT22;4761;49.490;10.908;2024-03-23T01:12:04;17.40;50.70
9446;DHT22;4761;49.490;10.908;2024-03-23T01:14:30;17.40;50.70
9446;DHT22;4761;49.490;10.908;2024-03-23T01:16:55;17.40;50.70
9446;DHT22;4761;49.490;10.908;2024-03-23T01:19:21;17.40;50.70
9446;DHT22;4761;49.490;10.908;2024-03-23T01:21:46;17.40;50.70
9446;DHT22;4761;49.490;10.908;2024-03-23T01:24:12;17.40;50.70
9446;DHT22;4761;49.490;10.908;2024-03-23T01:26:38;17.40;50.70
9446;DHT22;4761;49.490;10.908;2024-03-23T01:29:03;17.40;50.70
9446;DHT22;4761;49.490;10.908;2024-03-23T01:31:29;17.40;51.30
9446;DHT22;4761;49.490;10.908;2024-03-23T01:33:54;17.40;50.60
9446;DHT22;4761;49.490;10.908;2024-03-23T01:36:20;17.40;50.60
9446;DHT22;4761;49.490;10.908;2024-03-23T01:38:45;17.40;50.50
9446;DHT22;4761;49.490;10.908;2024-03-23T01:41:11;17.40;50.50
9446;DHT22;4761;49.490;10.908;2024-03-23T01:43:36;17.40;50.50
9446;DHT22;4761;49.490;10.908;2024-03-23T01:46:02;17.40;50.50
9446;DHT22;4761;49.490;10.908;2024-03-23T01:48:27;17.40;50.50
9446;DHT22;4761;49.490;10.908;2024-03-23T01:50:53;17.40;50.30
9446;DHT22;4761;49.490;10.908;2024-03-23T01:53:19;17.40;50.30
9446;DHT22;4761;49.490;10.908;2024-03-23T01:55:47;17.40;50.30
9446;DHT22;4761;49.490;10.908;2024-03-23T01:58:13;17.40;50.20
9446;DHT22;4761;49.490;10.908;2024-03-23T02:00:38;17.40;50.30
9446;DHT22;4761;49.490;10.908;2024-03-23T02:03:22;17.40;50.30
9446;DHT22;4761;49.490;10.908;2024-03-23T02:05:48;17.40;50.40
9446;DHT22;4761;49.490;10.908;2024-03-23T02:08:14;17.40;50.50
9446;DHT22;4761;49.490;10.908;2024-03-23T02:10:39;17.40;50.50
9446;DHT22;4761;49.490;10.908;2024-03-23T02:13:05;17.40;50.60
9446;DHT22;4761;49.490;10.908;2024-03-23T02:15:30;17.40;50.60
9446;DHT22;4761;49.490;10.908;2024-03-23T02:17:56;17.40;50.70
9446;DHT22;4761;49.490;10.908;2024-03-23T02:20:21;17.40;50.70
9446;DHT22;4761;49.490;10.908;2024-03-23T02:22:53;17.40;50.70
9446;DHT22;4761;49.490;10.908;2024-03-23T02:25:18;17.40;50.80
9446;DHT22;4761;49.490;10.908;2024-03-23T02:27:44;17.40;50.60
9446;DHT22;4761;49.490;10.908;2024-03-23T02:30:09;17.40;50.60
9446;DHT22;4761;49.490;10.908;2024-03-23T02:32:35;17.50;50.50
9446;DHT22;4761;49.490;10.908;2024-03-23T02:35:01;17.40;50.40
9446;DHT22;4761;49.490;10.908;2024-03-23T02:37:26;17.40;50.40
9446;DHT22;4761;49.490;10.908;2024-03-23T02:39:52;17.50;50.50
9446;DHT22;4761;49.490;10.908;2024-03-23T02:42:17;17.40;50.40
9446;DHT22;4761;49.490;10.908;2024-03-23T02:44:44;17.40;50.40
9446;DHT22;4761;49.490;10.908;2024-03-23T02:47:09;17.50;50.30
9446;DHT22;4761;49.490;10.908;2024-03-23T02:49:35;17.40;50.20
9446;DHT22;4761;49.490;10.908;2024-03-23T02:52:01;17.50;50.30
9446;DHT22;4761;49.490;10.908;2024-03-23T02:54:27;17.40;50.20
9446;DHT22;4761;49.490;10.908;2024-03-23T02:56:52;17.50;50.30
9446;DHT22;4761;49.490;10.908;2024-03-23T02:59:18;17.40;50.20
9446;DHT22;4761;49.490;10.908;2024-03-23T03:01:43;17.40;50.20
9446;DHT22;4761;49.490;10.908;2024-03-23T03:04:08;17.50;50.30
9446;DHT22;4761;49.490;10.908;2024-03-23T03:06:34;17.40;50.20
9446;DHT22;4761;49.490;10.908;2024-03-23T03:09:00;17.40;50.20
9446;DHT22;4761;49.490;10.908;2024-03-23T03:11:25;17.40;50.20
9446;DHT22;4761;49.490;10.908;2024-03-23T03:13:51;17.50;50.00
9446;DHT22;4761;49.490;10.908;2024-03-23T03:16:16;17.50;50.00
9446;DHT22;4761;49.490;10.908;2024-03-23T03:18:42;17.50;50.00
9446;DHT22;4761;49.490;10.908;2024-03-23T03:21:07;17.50;50.00
9446;DHT22;4761;49.490;10.908;2024-03-23T03:23:39;17.50;50.00
9446;DHT22;4761;49.490;10.908;2024-03-23T03:26:05;17.40;49.90
9446;DHT22;4761;49.490;10.908;2024-03-23T03:28:31;17.50;49.90
9446;DHT22;4761;49.490;10.908;2024-03-23T03:31:01;17.50;50.00
9446;DHT22;4761;49.490;10.908;2024-03-23T03:33:28;17.40;49.90
9446;DHT22;4761;49.490;10.908;2024-03-23T03:35:54;17.50;50.00
9446;DHT22;4761;49.490;10.908;2024-03-23T03:38:20;17.50;49.80
9446;DHT22;4761;49.490;10.908;2024-03-23T03:40:45;17.50;49.90
9446;DHT22;4761;49.490;10.908;2024-03-23T03:43:11;17.50;50.00
9446;DHT22;4761;49.490;10.908;2024-03-23T03:45:36;17.50;50.00
9446;DHT22;4761;49.490;10.908;2024-03-23T03:48:02;17.50;50.00
9446;DHT22;4761;49.490;10.908;2024-03-23T03:50:28;17.50;50.10
9446;DHT22;4761;49.490;10.908;2024-03-23T03:52:53;17.50;50.10
9446;DHT22;4761;49.490;10.908;2024-03-23T03:55:19;17.40;50.00
9446;DHT22;4761;49.490;10.908;2024-03-23T03:57:44;17.50;50.10
9446;DHT22;4761;49.490;10.908;2024-03-23T04:00:10;17.50;50.10
9446;DHT22;4761;49.490;10.908;2024-03-23T04:02:37;17.50;50.10
9446;DHT22;4761;49.490;10.908;2024-03-23T04:05:03;17.40;50.00
9446;DHT22;4761;49.490;10.908;2024-03-23T04:07:29;17.50;50.00
9446;DHT22;4761;49.490;10.908;2024-03-23T04:09:54;17.40;50.00
9446;DHT22;4761;49.490;10.908;2024-03-23T04:12:20;17.50;50.00
9446;DHT22;4761;49.490;10.908;2024-03-23T04:14:46;17.40;50.00
9446;DHT22;4761;49.490;10.908;2024-03-23T04:17:11;17.40;50.00
9446;DHT22;4761;49.490;10.908;2024-03-23T04:19:37;17.50;50.10
9446;DHT22;4761;49.490;10.908;2024-03-23T04:22:02;17.40;50.10
9446;DHT22;4761;49.490;10.908;2024-03-23T04:24:29;17.40;50.10
9446;DHT22;4761;49.490;10.908;2024-03-23T04:26:54;17.50;50.10
9446;DHT22;4761;49.490;10.908;2024-03-23T04:29:20;17.40;50.10
9446;DHT22;4761;49.490;10.908;2024-03-23T04:31:45;17.40;50.10
9446;DHT22;4761;49.490;10.908;2024-03-23T04:34:11;17.40;50.10
9446;DHT22;4761;49.490;10.908;2024-03-23T04:36:37;17.40;50.20
9446;DHT22;4761;49.490;10.908;2024-03-23T04:39:02;17.40;50.20
9446;DHT22;4761;49.490;10.908;2024-03-23T04:41:28;17.40;50.20
9446;DHT22;4761;49.490;10.908;2024-03-23T04:43:54;17.50;50.20
9446;DHT22;4761;49.490;10.908;2024-03-23T04:46:19;17.50;50.20
9446;DHT22;4761;49.490;10.908;2024-03-23T04:48:46;17.40;50.10
9446;DHT22;4761;49.490;10.908;2024-03-23T04:51:20;17.50;50.20
9446;DHT22;4761;49.490;10.908;2024-03-23T04:53:46;17.40;50.00
9446;DHT22;4761;49.490;10.908;2024-03-23T04:56:13;17.40;50.00
9446;DHT22;4761;49.490;10.908;2024-03-23T04:58:39;17.50;50.00
9446;DHT22;4761;49.490;10.908;2024-03-23T05:01:04;17.40;50.00
9446;DHT22;4761;49.490;10.908;2024-03-23T05:03:30;17.50;50.00
9446;DHT22;4761;49.490;10.908;2024-03-23T05:05:55;17.40;50.60
9446;DHT22;4761;49.490;10.908;2024-03-23T05:08:21;17.40;50.00
9446;DHT22;4761;49.490;10.908;2024-03-23T05:10:46;17.40;50.00
9446;DHT22;4761;49.490;10.908;2024-03-23T05:13:12;17.50;50.10
9446;DHT22;4761;49.490;10.908;2024-03-23T05:15:37;17.40;50.00
9446;DHT22;4761;49.490;10.908;2024-03-23T05:18:04;17.40;50.00
9446;DHT22;4761;49.490;10.908;2024-03-23T05:20:31;17.50;50.10
9446;DHT22;4761;49.490;10.908;2024-03-23T05:22:56;17.40;49.90
9446;DHT22;4761;49.490;10.908;2024-03-23T05:25:22;17.40;49.90
9446;DHT22;4761;49.490;10.908;2024-03-23T05:27:48;17.40;49.90
9446;DHT22;4761;49.490;10.908;2024-03-23T05:30:14;17.40;50.10
9446;DHT22;4761;49.490;10.908;2024-03-23T05:32:39;17.40;50.30
9446;DHT22;4761;49.490;10.908;2024-03-23T05:35:09;17.40;50.60
9446;DHT22;4761;49.490;10.908;2024-03-23T05:37:34;17.40;50.80
9446;DHT22;4761;49.490;10.908;2024-03-23T05:40:00;17.40;51.10
9446;DHT22;4761;49.490;10.908;2024-03-23T05:42:26;17.40;51.30
9446;DHT22;4761;49.490;10.908;2024-03-23T05:44:52;17.40;51.50
9446;DHT22;4761;49.490;10.908;2024-03-23T05:47:17;17.50;51.70
9446;DHT22;4761;49.490;10.908;2024-03-23T05:49:43;17.40;51.80
9446;DHT22;4761;49.490;10.908;2024-03-23T05:52:09;17.50;52.10
9446;DHT22;4761;49.490;10.908;2024-03-23T05:54:35;17.40;52.10
9446;DHT22;4761;49.490;10.908;2024-03-23T05:57:01;17.40;52.30
9446;DHT22;4761;49.490;10.908;2024-03-23T05:59:27;17.40;52.40
9446;DHT22;4761;49.490;10.908;2024-03-23T06:01:52;17.40;52.50
9446;DHT22;4761;49.490;10.908;2024-03-23T06:04:18;17.40;52.60
9446;DHT22;4761;49.490;10.908;2024-03-23T06:06:44;17.40;52.70
9446;DHT22;4761;49.490;10.908;2024-03-23T06:09:10;17.40;52.80
9446;DHT22;4761;49.490;10.908;2024-03-23T06:11:35;17.40;52.90
9446;DHT22;4761;49.490;10.908;2024-03-23T06:14:01;17.40;53.00
9446;DHT22;4761;49.490;10.908;2024-03-23T06:16:26;17.40;53.00
9446;DHT22;4761;49.490;10.908;2024-03-23T06:18:54;17.40;53.10
9446;DHT22;4761;49.490;10.908;2024-03-23T06:21:24;17.40;53.20
9446;DHT22;4761;49.490;10.908;2024-03-23T06:23:51;17.40;53.30
9446;DHT22;4761;49.490;10.908;2024-03-23T06:26:21;17.40;53.40
9446;DHT22;4761;49.490;10.908;2024-03-23T06:28:47;17.40;53.40
9446;DHT22;4761;49.490;10.908;2024-03-23T06:31:12;17.40;53.40
9446;DHT22;4761;49.490;10.908;2024-03-23T06:33:38;17.40;53.40
9446;DHT22;4761;49.490;10.908;2024-03-23T06:36:05;17.40;53.50
9446;DHT22;4761;49.490;10.908;2024-03-23T06:38:31;17.40;53.50
9446;DHT22;4761;49.490;10.908;2024-03-23T06:40:56;17.40;53.60
9446;DHT22;4761;49.490;10.908;2024-03-23T06:43:22;17.40;53.70
9446;DHT22;4761;49.490;10.908;2024-03-23T06:45:54;17.40;53.80
9446;DHT22;4761;49.490;10.908;2024-03-23T06:48:20;17.40;53.80
9446;DHT22;4761;49.490;10.908;2024-03-23T06:50:49;17.40;53.90
9446;DHT22;4761;49.490;10.908;2024-03-23T06:53:15;17.40;53.90
9446;DHT22;4761;49.490;10.908;2024-03-23T06:55:41;17.40;54.00
9446;DHT22;4761;49.490;10.908;2024-03-23T06:58:06;17.40;54.00
9446;DHT22;4761;49.490;10.908;2024-03-23T07:00:32;17.40;54.00
9446;DHT22;4761;49.490;10.908;2024-03-23T07:02:59;17.40;54.10
9446;DHT22;4761;49.490;10.908;2024-03-23T07:05:24;17.40;54.10
9446;DHT22;4761;49.490;10.908;2024-03-23T07:07:50;17.40;54.10
9446;DHT22;4761;49.490;10.908;2024-03-23T07:10:15;17.40;54.10
9446;DHT22;4761;49.490;10.908;2024-03-23T07:12:41;17.40;54.10
9446;DHT22;4761;49.490;10.908;2024-03-23T07:15:07;17.40;54.20
9446;DHT22;4761;49.490;10.908;2024-03-23T07:17:33;17.40;54.20
9446;DHT22;4761;49.490;10.908;2024-03-23T07:20:01;17.40;54.20
9446;DHT22;4761;49.490;10.908;2024-03-23T07:22:32;17.40;54.10
9446;DHT22;4761;49.490;10.908;2024-03-23T07:25:00;17.50;54.10
9446;DHT22;4761;49.490;10.908;2024-03-23T07:27:26;17.40;54.10
9446;DHT22;4761;49.490;10.908;2024-03-23T07:29:51;17.40;54.10
9446;DHT22;4761;49.490;10.908;2024-03-23T07:32:17;17.40;54.10
9446;DHT22;4761;49.490;10.908;2024-03-23T07:34:43;17.50;54.20
9446;DHT22;4761;49.490;10.908;2024-03-23T07:37:10;17.40;54.10
9446;DHT22;4761;49.490;10.908;2024-03-23T07:39:35;17.40;54.10
9446;DHT22;4761;49.490;10.908;2024-03-23T07:42:01;17.40;54.00
9446;DHT22;4761;49.490;10.908;2024-03-23T07:44:26;17.50;54.10
9446;DHT22;4761;49.490;10.908;2024-03-23T07:46:52;17.40;54.10
9446;DHT22;4761;49.490;10.908;2024-03-23T07:49:17;17.40;54.10
9446;DHT22;4761;49.490;10.908;2024-03-23T07:51:43;17.50;54.30
9446;DHT22;4761;49.490;10.908;2024-03-23T07:54:10;17.50;54.30
9446;DHT22;4761;49.490;10.908;2024-03-23T07:56:35;17.40;54.20
9446;DHT22;4761;49.490;10.908;2024-03-23T07:59:01;17.50;54.20
9446;DHT22;4761;49.490;10.908;2024-03-23T08:01:28;17.50;54.20
9446;DHT22;4761;49.490;10.908;2024-03-23T08:03:54;17.40;54.20
9446;DHT22;4761;49.490;10.908;2024-03-23T08:06:20;17.40;54.20
9446;DHT22;4761;49.490;10.908;2024-03-23T08:08:50;17.40;54.30
9446;DHT22;4761;49.490;10.908;2024-03-23T08:11:16;17.40;54.40
9446;DHT22;4761;49.490;10.908;2024-03-23T08:13:45;17.40;54.50
9446;DHT22;4761;49.490;10.908;2024-03-23T08:16:10;17.40;54.50
9446;DHT22;4761;49.490;10.908;2024-03-23T08:18:37;17.50;54.60
9446;DHT22;4761;49.490;10.908;2024-03-23T08:21:06;17.40;54.60
9446;DHT22;4761;49.490;10.908;2024-03-23T08:23:35;17.40;54.70
9446;DHT22;4761;49.490;10.908;2024-03-23T08:26:06;17.40;54.70
9446;DHT22;4761;49.490;10.908;2024-03-23T08:28:31;17.40;54.70
9446;DHT22;4761;49.490;10.908;2024-03-23T08:31:01;17.40;54.70
9446;DHT22;4761;49.490;10.908;2024-03-23T08:33:26;17.40;54.80
9446;DHT22;4761;49.490;10.908;2024-03-23T08:35:56;17.40;54.80
9446;DHT22;4761;49.490;10.908;2024-03-23T08:38:23;17.40;54.80
9446;DHT22;4761;49.490;10.908;2024-03-23T08:41:00;17.40;54.90
9446;DHT22;4761;49.490;10.908;2024-03-23T08:43:26;17.50;54.80
9446;DHT22;4761;49.490;10.908;2024-03-23T08:45:52;17.40;54.80
9446;DHT22;4761;49.490;10.908;2024-03-23T08:48:21;17.40;54.80
9446;DHT22;4761;49.490;10.908;2024-03-23T08:50:47;17.40;54.80
9446;DHT22;4761;49.490;10.908;2024-03-23T08:53:14;17.40;54.80
9446;DHT22;4761;49.490;10.908;2024-03-23T08:55:39;17.40;54.80
9446;DHT22;4761;49.490;10.908;2024-03-23T08:58:05;17.40;54.80
9446;DHT22;4761;49.490;10.908;2024-03-23T09:00:33;17.40;54.80
9446;DHT22;4761;49.490;10.908;2024-03-23T09:02:59;17.40;54.70
9446;DHT22;4761;49.490;10.908;2024-03-23T09:05:26;17.40;54.70
9446;DHT22;4761;49.490;10.908;2024-03-23T09:07:53;17.40;54.70
9446;DHT22;4761;49.490;10.908;2024-03-23T09:10:18;17.40;54.60
9446;DHT22;4761;49.490;10.908;2024-03-23T09:12:44;17.40;54.50
9446;DHT22;4761;49.490;10.908;2024-03-23T09:15:09;17.40;54.50
9446;DHT22;4761;49.490;10.908;2024-03-23T09:17:35;17.40;54.40
9446;DHT22;4761;49.490;10.908;2024-03-23T09:20:00;17.40;54.40
9446;DHT22;4761;49.490;10.908;2024-03-23T09:22:26;17.30;54.30
9446;DHT22;4761;49.490;10.908;2024-03-23T09:24:52;17.40;54.30
9446;DHT22;4761;49.490;10.908;2024-03-23T09:27:17;17.40;54.30
9446;DHT22;4761;49.490;10.908;2024-03-23T09:29:43;17.40;54.20
9446;DHT22;4761;49.490;10.908;2024-03-23T09:32:08;17.40;54.10
9446;DHT22;4761;49.490;10.908;2024-03-23T09:34:34;17.40;54.00
9446;DHT22;4761;49.490;10.908;2024-03-23T09:36:59;17.40;53.90
9446;DHT22;4761;49.490;10.908;2024-03-23T09:39:25;17.40;53.80
9446;DHT22;4761;49.490;10.908;2024-03-23T09:41:51;17.30;53.70
9446;DHT22;4761;49.490;10.908;2024-03-23T09:44:21;17.30;53.60
9446;DHT22;4761;49.490;10.908;2024-03-23T09:46:47;17.30;53.60
9446;DHT22;4761;49.490;10.908;2024-03-23T09:49:12;17.40;53.70
9446;DHT22;4761;49.490;10.908;2024-03-23T09:51:38;17.40;53.50
9446;DHT22;4761;49.490;10.908;2024-03-23T09:54:03;17.40;53.50
9446;DHT22;4761;49.490;10.908;2024-03-23T09:56:29;17.40;53.50
9446;DHT22;4761;49.490;10.908;2024-03-23T09:59:02;17.40;53.40
9446;DHT22;4761;49.490;10.908;2024-03-23T10:01:30;17.40;53.40
9446;DHT22;4761;49.490;10.908;2024-03-23T10:03:55;17.40;53.40
9446;DHT22;4761;49.490;10.908;2024-03-23T10:06:22;17.40;53.10
9446;DHT22;4761;49.490;10.908;2024-03-23T10:08:50;17.40;53.00
9446;DHT22;4761;49.490;10.908;2024-03-23T10:11:16;17.40;53.00
9446;DHT22;4761;49.490;10.908;2024-03-23T10:13:43;17.40;52.90
9446;DHT22;4761;49.490;10.908;2024-03-23T10:16:09;17.40;52.90
9446;DHT22;4761;49.490;10.908;2024-03-23T10:18:39;17.40;52.80
9446;DHT22;4761;49.490;10.908;2024-03-23T10:21:11;17.40;52.80
9446;DHT22;4761;49.490;10.908;2024-03-23T10:23:41;17.40;52.70
9446;DHT22;4761;49.490;10.908;2024-03-23T10:28:52;17.40;52.60
9446;DHT22;4761;49.490;10.908;2024-03-23T10:31:18;17.40;52.50
9446;DHT22;4761;49.490;10.908;2024-03-23T10:33:47;17.40;52.50
9446;DHT22;4761;49.490;10.908;2024-03-23T10:36:13;17.40;52.40
9446;DHT22;4761;49.490;10.908;2024-03-23T10:38:43;17.40;52.30
9446;DHT22;4761;49.490;10.908;2024-03-23T10:41:10;17.40;52.30
9446;DHT22;4761;49.490;10.908;2024-03-23T10:43:37;17.40;52.20
9446;DHT22;4761;49.490;10.908;2024-03-23T10:46:03;17.40;52.20
9446;DHT22;4761;49.490;10.908;2024-03-23T10:48:29;17.40;52.10
9446;DHT22;4761;49.490;10.908;2024-03-23T10:50:55;17.40;52.10
9446;DHT22;4761;49.490;10.908;2024-03-23T10:53:26;17.30;51.90
9446;DHT22;4761;49.490;10.908;2024-03-23T10:55:52;17.30;51.90
9446;DHT22;4761;49.490;10.908;2024-03-23T10:58:28;17.40;51.90
9446;DHT22;4761;49.490;10.908;2024-03-23T11:00:55;17.30;51.70
9446;DHT22;4761;49.490;10.908;2024-03-23T11:03:35;17.30;51.60
9446;DHT22;4761;49.490;10.908;2024-03-23T11:06:05;17.30;51.50
9446;DHT22;4761;49.490;10.908;2024-03-23T11:11:20;17.30;51.40
9446;DHT22;4761;49.490;10.908;2024-03-23T11:13:53;17.30;51.40
9446;DHT22;4761;49.490;10.908;2024-03-23T11:16:27;17.30;51.30
9446;DHT22;4761;49.490;10.908;2024-03-23T11:19:34;17.40;51.40
9446;DHT22;4761;49.490;10.908;2024-03-23T11:22:00;17.40;51.30
9446;DHT22;4761;49.490;10.908;2024-03-23T11:24:26;17.40;51.20
9446;DHT22;4761;49.490;10.908;2024-03-23T11:26:52;17.30;50.90
9446;DHT22;4761;49.490;10.908;2024-03-23T11:29:18;17.40;50.90
9446;DHT22;4761;49.490;10.908;2024-03-23T11:31:51;17.40;50.80
9446;DHT22;4761;49.490;10.908;2024-03-23T11:34:18;17.40;50.70
9446;DHT22;4761;49.490;10.908;2024-03-23T11:36:44;17.40;50.60
9446;DHT22;4761;49.490;10.908;2024-03-23T11:39:14;17.40;50.50
9446;DHT22;4761;49.490;10.908;2024-03-23T11:41:52;17.40;50.50
9446;DHT22;4761;49.490;10.908;2024-03-23T11:44:23;17.40;50.40
9446;DHT22;4761;49.490;10.908;2024-03-23T11:46:49;17.40;50.40
9446;DHT22;4761;49.490;10.908;2024-03-23T11:49:28;17.40;50.20
9446;DHT22;4761;49.490;10.908;2024-03-23T11:51:56;17.40;50.10
9446;DHT22;4761;49.490;10.908;2024-03-23T11:54:22;17.40;50.00
9446;DHT22;4761;49.490;10.908;2024-03-23T11:57:05;17.40;49.90
9446;DHT22;4761;49.490;10.908;2024-03-23T11:59:38;17.40;49.80
9446;DHT22;4761;49.490;10.908;2024-03-23T12:02:07;17.40;49.70
9446;DHT22;4761;49.490;10.908;2024-03-23T12:04:32;17.40;49.70
9446;DHT22;4761;49.490;10.908;2024-03-23T12:07:20;17.40;49.70
9446;DHT22;4761;49.490;10.908;2024-03-23T12:09:47;17.40;49.70
9446;DHT22;4761;49.490;10.908;2024-03-23T12:12:17;17.40;49.70
9446;DHT22;4761;49.490;10.908;2024-03-23T12:14:44;17.40;49.70
9446;DHT22;4761;49.490;10.908;2024-03-23T12:17:14;17.40;49.60
9446;DHT22;4761;49.490;10.908;2024-03-23T12:19:41;17.40;49.50
9446;DHT22;4761;49.490;10.908;2024-03-23T12:22:07;17.40;49.50
9446;DHT22;4761;49.490;10.908;2024-03-23T12:24:34;17.50;49.50
9446;DHT22;4761;49.490;10.908;2024-03-23T12:27:03;17.40;49.40
9446;DHT22;4761;49.490;10.908;2024-03-23T12:29:31;17.40;49.40
9446;DHT22;4761;49.490;10.908;2024-03-23T12:32:01;17.40;49.50
9446;DHT22;4761;49.490;10.908;2024-03-23T12:34:29;17.40;49.50
9446;DHT22;4761;49.490;10.908;2024-03-23T12:36:56;17.50;49.50
9446;DHT22;4761;49.490;10.908;2024-03-23T12:39:21;17.40;49.20
9446;DHT22;4761;49.490;10.908;2024-03-23T12:41:48;17.40;49.20
9446;DHT22;4761;49.490;10.908;2024-03-23T12:44:14;17.40;49.20
9446;DHT22;4761;49.490;10.908;2024-03-23T12:46:41;17.40;49.10
9446;DHT22;4761;49.490;10.908;2024-03-23T12:49:07;17.40;49.00
9446;DHT22;4761;49.490;10.908;2024-03-23T12:51:34;17.40;49.00
9446;DHT22;4761;49.490;10.908;2024-03-23T12:54:00;17.50;49.10
9446;DHT22;4761;49.490;10.908;2024-03-23T12:56:25;17.40;49.10
9446;DHT22;4761;49.490;10.908;2024-03-23T12:58:51;17.40;49.10
9446;DHT22;4761;49.490;10.908;2024-03-23T13:01:18;17.50;49.10
9446;DHT22;4761;49.490;10.908;2024-03-23T13:03:49;17.40;48.90
9446;DHT22;4761;49.490;10.908;2024-03-23T13:06:16;17.40;48.90
9446;DHT22;4761;49.490;10.908;2024-03-23T13:08:44;17.40;48.80
9446;DHT22;4761;49.490;10.908;2024-03-23T13:11:10;17.40;48.80
9446;DHT22;4761;49.490;10.908;2024-03-23T13:13:38;17.40;48.70
9446;DHT22;4761;49.490;10.908;2024-03-23T13:16:04;17.40;48.60
9446;DHT22;4761;49.490;10.908;2024-03-23T13:18:31;17.40;48.50
9446;DHT22;4761;49.490;10.908;2024-03-23T13:20:57;17.40;48.50
9446;DHT22;4761;49.490;10.908;2024-03-23T13:23:23;17.40;48.40
9446;DHT22;4761;49.490;10.908;2024-03-23T13:25:52;17.40;48.40
9446;DHT22;4761;49.490;10.908;2024-03-23T13:28:19;17.40;48.40
9446;DHT22;4761;49.490;10.908;2024-03-23T13:30:54;17.40;48.40
9446;DHT22;4761;49.490;10.908;2024-03-23T13:33:20;17.40;48.50
9446;DHT22;4761;49.490;10.908;2024-03-23T13:35:52;17.40;48.50
9446;DHT22;4761;49.490;10.908;2024-03-23T13:38:18;17.40;48.60
9446;DHT22;4761;49.490;10.908;2024-03-23T13:40:54;17.40;48.60
9446;DHT22;4761;49.490;10.908;2024-03-23T13:43:20;17.40;48.70
9446;DHT22;4761;49.490;10.908;2024-03-23T13:45:53;17.40;48.60
9446;DHT22;4761;49.490;10.908;2024-03-23T13:48:19;17.40;49.20
9446;DHT22;4761;49.490;10.908;2024-03-23T13:50:45;17.40;48.60
9446;DHT22;4761;49.490;10.908;2024-03-23T13:53:14;17.40;48.60
9446;DHT22;4761;49.490;10.908;2024-03-23T13:55:48;17.40;48.70
9446;DHT22;4761;49.490;10.908;2024-03-23T13:58:15;17.40;48.50
9446;DHT22;4761;49.490;10.908;2024-03-23T14:00:41;17.40;48.20
9446;DHT22;4761;49.490;10.908;2024-03-23T14:03:13;17.40;48.30
9446;DHT22;4761;49.490;10.908;2024-03-23T14:05:39;17.50;48.40
9446;DHT22;4761;49.490;10.908;2024-03-23T14:08:06;17.40;48.40
9446;DHT22;4761;49.490;10.908;2024-03-23T14:10:32;17.40;48.40
9446;DHT22;4761;49.490;10.908;2024-03-23T14:12:57;17.40;48.30
9446;DHT22;4761;49.490;10.908;2024-03-23T14:15:23;17.40;48.20
9446;DHT22;4761;49.490;10.908;2024-03-23T14:17:49;17.50;48.20
9446;DHT22;4761;49.490;10.908;2024-03-23T14:20:14;17.40;48.10
9446;DHT22;4761;49.490;10.908;2024-03-23T14:22:41;17.40;48.10
9446;DHT22;4761;49.490;10.908;2024-03-23T14:25:07;17.40;48.00
9446;DHT22;4761;49.490;10.908;2024-03-23T14:27:32;17.40;47.90
9446;DHT22;4761;49.490;10.908;2024-03-23T14:29:58;17.40;47.80
9446;DHT22;4761;49.490;10.908;2024-03-23T14:32:23;17.40;47.60
9446;DHT22;4761;49.490;10.908;2024-03-23T14:34:49;17.40;47.50
9446;DHT22;4761;49.490;10.908;2024-03-23T14:37:14;17.50;47.50
9446;DHT22;4761;49.490;10.908;2024-03-23T14:39:41;17.40;47.40
9446;DHT22;4761;49.490;10.908;2024-03-23T14:42:07;17.40;47.40
9446;DHT22;4761;49.490;10.908;2024-03-23T14:44:34;17.40;47.40
9446;DHT22;4761;49.490;10.908;2024-03-23T14:46:59;17.40;47.30
9446;DHT22;4761;49.490;10.908;2024-03-23T14:49:25;17.40;47.30
9446;DHT22;4761;49.490;10.908;2024-03-23T14:51:51;17.40;47.30
9446;DHT22;4761;49.490;10.908;2024-03-23T14:54:17;17.40;47.20
9446;DHT22;4761;49.490;10.908;2024-03-23T14:56:42;17.40;47.10
9446;DHT22;4761;49.490;10.908;2024-03-23T14:59:08;17.40;47.10
9446;DHT22;4761;49.490;10.908;2024-03-23T15:01:33;17.40;47.10
9446;DHT22;4761;49.490;10.908;2024-03-23T15:04:00;17.40;47.30
9446;DHT22;4761;49.490;10.908;2024-03-23T15:06:25;17.40;47.40
9446;DHT22;4761;49.490;10.908;2024-03-23T15:08:51;17.40;47.60
9446;DHT22;4761;49.490;10.908;2024-03-23T15:11:16;17.40;47.70
9446;DHT22;4761;49.490;10.908;2024-03-23T15:13:44;17.40;48.00
9446;DHT22;4761;49.490;10.908;2024-03-23T15:16:10;17.40;48.10
9446;DHT22;4761;49.490;10.908;2024-03-23T15:18:35;17.40;48.30
9446;DHT22;4761;49.490;10.908;2024-03-23T15:21:02;17.40;48.50
9446;DHT22;4761;49.490;10.908;2024-03-23T15:23:29;17.40;48.70
9446;DHT22;4761;49.490;10.908;2024-03-23T15:25:55;17.40;49.00
9446;DHT22;4761;49.490;10.908;2024-03-23T15:28:22;17.40;49.20
9446;DHT22;4761;49.490;10.908;2024-03-23T15:30:48;17.40;49.50
9446;DHT22;4761;49.490;10.908;2024-03-23T15:33:14;17.40;49.50
9446;DHT22;4761;49.490;10.908;2024-03-23T15:35:39;17.40;49.60
9446;DHT22;4761;49.490;10.908;2024-03-23T15:38:05;17.30;49.60
9446;DHT22;4761;49.490;10.908;2024-03-23T15:40:30;17.40;49.80
9446;DHT22;4761;49.490;10.908;2024-03-23T15:42:56;17.40;49.80
9446;DHT22;4761;49.490;10.908;2024-03-23T15:45:21;17.30;49.80
9446;DHT22;4761;49.490;10.908;2024-03-23T15:47:47;17.30;49.80
9446;DHT22;4761;49.490;10.908;2024-03-23T15:50:13;17.30;49.80
9446;DHT22;4761;49.490;10.908;2024-03-23T15:52:38;17.40;49.90
9446;DHT22;4761;49.490;10.908;2024-03-23T15:55:04;17.40;49.90
9446;DHT22;4761;49.490;10.908;2024-03-23T15:57:34;17.40;49.90
9446;DHT22;4761;49.490;10.908;2024-03-23T16:00:00;17.30;49.80
9446;DHT22;4761;49.490;10.908;2024-03-23T16:02:26;17.30;49.70
9446;DHT22;4761;49.490;10.908;2024-03-23T16:04:53;17.40;49.70
9446;DHT22;4761;49.490;10.908;2024-03-23T16:07:19;17.40;49.70
9446;DHT22;4761;49.490;10.908;2024-03-23T16:09:44;17.40;49.60
9446;DHT22;4761;49.490;10.908;2024-03-23T16:12:10;17.30;49.50
9446;DHT22;4761;49.490;10.908;2024-03-23T16:14:35;17.30;49.40
9446;DHT22;4761;49.490;10.908;2024-03-23T16:17:01;17.30;49.40
9446;DHT22;4761;49.490;10.908;2024-03-23T16:19:26;17.40;49.30
9446;DHT22;4761;49.490;10.908;2024-03-23T16:21:52;17.40;49.20
9446;DHT22;4761;49.490;10.908;2024-03-23T16:24:17;17.40;49.10
9446;DHT22;4761;49.490;10.908;2024-03-23T16:26:43;17.40;49.00
9446;DHT22;4761;49.490;10.908;2024-03-23T16:29:10;17.40;48.90
9446;DHT22;4761;49.490;10.908;2024-03-23T16:31:36;17.30;48.70
9446;DHT22;4761;49.490;10.908;2024-03-23T16:34:02;17.30;48.50
9446;DHT22;4761;49.490;10.908;2024-03-23T16:36:27;17.40;48.50
9446;DHT22;4761;49.490;10.908;2024-03-23T16:38:53;17.40;48.30
9446;DHT22;4761;49.490;10.908;2024-03-23T16:41:18;17.40;48.10